createdAt,value
2022-11-04T00:04:23.166Z,6.65
2022-11-04T00:09:29.005Z,6.50
2022-11-04T00:19:52.033Z,5.80
2022-11-04T00:25:13.120Z,6.88
2022-11-04T00:30:18.361Z,6.75
2022-11-04T00:35:23.210Z,5.47
2022-11-04T00:40:27.050Z,5.97
2022-11-04T00:45:32.300Z,6.00
2022-11-04T00:50:36.128Z,6.07
2022-11-04T00:55:40.057Z,7.03
2022-11-04T01:00:45.132Z,6.90
2022-11-04T01:05:49.003Z,7.03
2022-11-04T01:10:52.718Z,7.30
2022-11-04T01:15:59.065Z,5.90
2022-11-04T01:21:03.489Z,6.35
2022-11-04T01:26:07.825Z,7.03
2022-11-04T01:31:17.915Z,5.50
2022-11-04T01:36:23.204Z,6.82
2022-11-04T01:41:28.813Z,6.65
2022-11-04T01:46:39.269Z,7.55
2022-11-04T01:51:44.416Z,6.60
2022-11-04T01:56:49.494Z,7.87
2022-11-04T02:01:55.278Z,7.67
2022-11-04T02:07:02.170Z,7.40
2022-11-04T02:12:24.148Z,7.90
2022-11-04T02:17:42.861Z,8.20
2022-11-04T02:23:19.935Z,8.18
2022-11-04T02:28:56.231Z,8.43
2022-11-04T02:34:09.150Z,10.32
2022-11-04T02:39:23.964Z,10.30
2022-11-04T02:44:34.998Z,9.80
2022-11-04T02:49:45.306Z,8.45
2022-11-04T02:54:52.974Z,8.65
2022-11-04T03:00:01.149Z,8.82
2022-11-04T03:05:08.420Z,8.13
2022-11-04T03:10:17.410Z,9.15
2022-11-04T03:15:25.726Z,9.73
2022-11-04T03:20:32.484Z,8.50
2022-11-04T03:25:41.978Z,9.48
2022-11-04T03:30:52.387Z,9.07
2022-11-04T03:35:58.594Z,7.88
2022-11-04T03:41:04.566Z,8.27
2022-11-04T03:46:08.777Z,9.13
2022-11-04T03:51:13.944Z,9.07
2022-11-04T03:56:59.105Z,8.40
2022-11-04T04:02:13.400Z,7.93
2022-11-04T04:07:23.073Z,8.27
2022-11-04T04:12:32.090Z,7.30
2022-11-04T04:17:38.877Z,10.57
2022-11-04T04:22:50.048Z,9.68
2022-11-04T04:27:55.424Z,8.30
2022-11-04T04:33:02.563Z,8.45
2022-11-04T04:38:31.519Z,7.22
2022-11-04T04:43:52.689Z,8.10
2022-11-04T04:48:56.476Z,7.93
2022-11-04T04:54:01.675Z,7.40
2022-11-04T04:59:06.097Z,7.80
2022-11-04T05:04:10.131Z,8.38
2022-11-04T05:09:15.262Z,6.28
2022-11-04T05:14:19.199Z,6.55
2022-11-04T05:19:23.220Z,6.88
2022-11-04T05:24:28.367Z,7.22
2022-11-04T05:29:32.294Z,8.40
2022-11-04T05:34:36.089Z,7.35
2022-11-04T05:39:41.200Z,7.22
2022-11-04T05:44:45.012Z,7.10
2022-11-04T05:49:48.835Z,7.85
2022-11-04T05:54:53.966Z,7.32
2022-11-04T05:59:57.824Z,7.70
2022-11-04T06:05:01.758Z,7.97
2022-11-04T06:10:07.979Z,7.53
2022-11-04T06:15:12.318Z,7.78
2022-11-04T06:20:16.588Z,7.63
2022-11-04T06:25:22.238Z,7.70
2022-11-04T06:30:26.617Z,7.32
2022-11-04T06:35:32.334Z,6.80
2022-11-04T06:40:38.730Z,7.53
2022-11-04T06:45:42.525Z,7.85
2022-11-04T06:50:46.341Z,7.32
2022-11-04T06:55:52.730Z,7.28
2022-11-04T07:00:56.765Z,6.97
2022-11-04T07:06:00.614Z,7.47
2022-11-04T07:11:05.851Z,7.28
2022-11-04T07:16:10.609Z,7.35
2022-11-04T07:21:14.486Z,7.13
2022-11-04T07:26:20.394Z,7.30
2022-11-04T07:31:24.214Z,6.82
2022-11-04T07:36:27.978Z,6.47
2022-11-04T07:41:33.216Z,6.43
2022-11-04T07:46:37.356Z,6.50
2022-11-04T07:51:41.186Z,6.90
2022-11-04T07:56:46.369Z,6.07
2022-11-04T08:01:50.273Z,5.60
2022-11-04T08:06:54.849Z,5.20
2022-11-04T08:12:00.410Z,5.25
2022-11-04T08:17:04.798Z,5.82
2022-11-04T08:22:09.527Z,5.47
2022-11-04T08:27:15.189Z,5.43
2022-11-04T08:32:19.485Z,5.93
2022-11-04T08:37:23.694Z,6.43
2022-11-04T08:42:28.969Z,5.30
2022-11-04T08:47:32.887Z,5.82
2022-11-04T08:52:36.694Z,5.93
2022-11-04T08:57:41.949Z,5.22
2022-11-04T09:02:45.713Z,5.25
2022-11-04T09:07:49.619Z,5.57
2022-11-04T09:12:54.782Z,5.28
2022-11-04T09:17:58.599Z,4.82
2022-11-04T09:23:02.607Z,5.45
2022-11-04T09:28:08.032Z,4.80
2022-11-04T09:33:12.184Z,5.15
2022-11-04T09:38:16.339Z,5.30
2022-11-04T09:43:37.936Z,5.63
2022-11-04T09:48:46.281Z,6.15
2022-11-04T09:53:53.110Z,5.57
2022-11-04T09:58:58.511Z,6.30
2022-11-04T10:04:12.680Z,6.35
2022-11-04T10:09:31.653Z,6.18
2022-11-04T10:15:08.867Z,24.98
2022-11-04T10:20:24.638Z,6.85
2022-11-04T10:25:35.758Z,6.53
2022-11-04T10:30:44.373Z,6.55
2022-11-04T10:35:51.833Z,6.68
2022-11-04T10:41:01.620Z,6.80
2022-11-04T10:46:22.090Z,6.75
2022-11-04T10:51:26.074Z,7.70
2022-11-04T10:56:37.712Z,5.90
2022-11-04T11:01:50.733Z,6.57
2022-11-04T11:06:57.437Z,6.28
2022-11-04T11:12:09.867Z,6.25
2022-11-04T11:17:26.163Z,7.25
2022-11-04T11:22:41.893Z,6.35
2022-11-04T11:27:50.438Z,7.63
2022-11-04T11:32:59.374Z,6.28
2022-11-04T11:38:06.251Z,5.65
2022-11-04T11:43:26.027Z,6.32
2022-11-04T11:48:34.291Z,6.50
2022-11-04T11:53:40.773Z,6.93
2022-11-04T12:15:16.272Z,9.45
2022-11-04T12:21:00.134Z,8.00
2022-11-04T12:26:25.720Z,6.97
2022-11-04T12:31:43.438Z,7.68
2022-11-04T12:37:12.982Z,8.75
2022-11-04T12:42:32.696Z,7.45
2022-11-04T12:47:41.038Z,7.75
2022-11-04T12:53:08.386Z,8.27
2022-11-04T12:58:31.478Z,8.73
2022-11-04T13:03:41.580Z,8.02
2022-11-04T13:08:52.429Z,7.80
2022-11-04T13:14:04.225Z,8.05
2022-11-04T16:01:00.915Z,29.42
2022-11-04T16:06:06.853Z,30.60
2022-11-04T16:11:14.718Z,25.50
2022-11-04T16:16:24.486Z,29.77
2022-11-04T16:21:31.646Z,28.58
2022-11-04T16:26:40.376Z,33.92
2022-11-04T16:31:45.839Z,33.75
2022-11-04T16:36:49.906Z,30.92
2022-11-04T16:41:53.827Z,29.75
2022-11-04T16:46:59.172Z,33.65
2022-11-04T16:52:04.247Z,31.30
2022-11-04T16:57:11.876Z,33.40
2022-11-04T17:02:30.831Z,31.63
2022-11-04T17:07:52.043Z,33.50
2022-11-04T17:12:58.388Z,34.92
2022-11-04T17:18:03.953Z,30.83
2022-11-04T17:23:08.256Z,30.77
2022-11-04T17:28:14.137Z,33.55
2022-11-04T17:33:20.434Z,33.50
2022-11-04T17:38:24.419Z,33.25
2022-11-04T17:43:45.904Z,30.55
2022-11-04T17:48:51.281Z,29.58
2022-11-04T17:53:55.146Z,31.50
2022-11-04T17:59:01.397Z,28.05
2022-11-04T18:04:07.421Z,30.40
2022-11-04T18:09:12.153Z,33.00
2022-11-04T18:14:18.764Z,36.23
2022-11-04T18:19:25.022Z,38.22
2022-11-04T18:24:29.212Z,36.85
2022-11-04T18:29:33.126Z,42.42
2022-11-04T18:34:38.553Z,42.05
2022-11-04T18:39:43.461Z,41.78
2022-11-04T18:44:47.297Z,51.63
2022-11-04T18:49:52.799Z,84.55
2022-11-04T18:54:56.894Z,51.80
2022-11-04T19:00:03.345Z,43.65
2022-11-04T19:05:11.142Z,44.10
2022-11-04T19:10:15.255Z,48.15
2022-11-04T19:15:19.663Z,44.72
2022-11-04T19:20:24.889Z,46.10
2022-11-04T19:25:28.975Z,46.53
2022-11-04T19:30:32.979Z,46.95
2022-11-04T19:35:38.333Z,53.13
2022-11-04T19:40:42.337Z,49.33
2022-11-04T19:45:49.007Z,47.38
2022-11-04T19:50:54.421Z,44.70
2022-11-04T19:55:58.735Z,39.92
2022-11-04T20:01:06.153Z,42.72
2022-11-04T20:06:13.123Z,41.08
2022-11-04T20:11:19.037Z,40.85
2022-11-04T20:21:33.231Z,40.30
2022-11-04T20:26:38.651Z,39.88
2022-11-04T20:31:43.147Z,43.50
2022-11-04T20:36:48.907Z,36.28
2022-11-04T20:41:53.165Z,41.22
2022-11-04T20:46:57.418Z,42.08
2022-11-04T20:52:03.479Z,36.83
2022-11-04T20:57:07.989Z,34.47
2022-11-04T21:02:13.451Z,39.45
2022-11-04T21:07:19.042Z,38.17
2022-11-04T21:12:23.299Z,38.40
2022-11-04T21:17:27.206Z,38.70
2022-11-04T21:22:33.652Z,35.65
2022-11-04T21:27:37.460Z,38.08
2022-11-04T21:32:41.199Z,34.67
2022-11-04T21:37:46.314Z,35.25
2022-11-04T21:42:50.104Z,35.07
2022-11-04T21:47:54.508Z,33.97
2022-11-04T21:53:00.204Z,30.85
2022-11-04T21:58:04.003Z,32.05
2022-11-04T22:03:07.928Z,33.33
2022-11-04T22:08:19.933Z,31.90
2022-11-04T22:13:24.336Z,32.55
2022-11-04T22:18:30.445Z,31.85
2022-11-04T22:23:36.738Z,30.60
2022-11-04T22:28:40.780Z,32.05
2022-11-04T22:33:44.946Z,31.48
2022-11-04T22:38:50.728Z,32.75
2022-11-04T22:43:54.542Z,32.72
2022-11-04T22:48:59.670Z,31.05
2022-11-04T22:54:08.465Z,29.87
2022-11-04T22:59:13.913Z,28.27
2022-11-04T23:04:17.815Z,29.83
2022-11-04T23:09:22.981Z,29.52
2022-11-04T23:14:49.656Z,29.83
2022-11-04T23:19:53.373Z,29.55
2022-11-04T23:25:09.588Z,28.10
2022-11-04T23:30:25.812Z,27.58
2022-11-04T23:35:49.191Z,26.15
2022-11-04T23:41:14.013Z,25.50
2022-11-04T23:46:41.112Z,24.23
2022-11-04T23:52:03.423Z,25.70
2022-11-04T23:57:31.613Z,26.10
